createdAt,value
2023-04-26T00:00:23.068Z,0.00
2023-04-26T00:01:22.949Z,0.00
2023-04-26T00:02:23.029Z,0.00
2023-04-26T00:03:23.058Z,0.00
2023-04-26T00:04:23.044Z,0.00
2023-04-26T00:05:22.875Z,0.00
2023-04-26T00:06:22.822Z,0.00
2023-04-26T00:07:22.724Z,0.00
2023-04-26T00:08:22.686Z,0.00
2023-04-26T00:09:22.643Z,0.00
2023-04-26T00:10:22.621Z,0.00
2023-04-26T00:11:22.583Z,0.00
2023-04-26T00:12:22.589Z,0.00
2023-04-26T00:13:22.497Z,0.00
2023-04-26T00:14:22.469Z,0.00
2023-04-26T00:15:22.430Z,0.00
2023-04-26T00:16:22.510Z,0.00
2023-04-26T00:17:22.367Z,0.00
2023-04-26T00:18:22.546Z,0.00
2023-04-26T00:19:22.276Z,0.00
2023-04-26T00:20:22.311Z,0.00
2023-04-26T00:21:22.215Z,0.00
2023-04-26T00:22:22.179Z,0.00
2023-04-26T00:23:22.279Z,0.00
2023-04-26T00:24:22.111Z,0.00
2023-04-26T00:25:22.062Z,0.00
2023-04-26T00:26:22.031Z,0.00
2023-04-26T00:27:21.985Z,0.00
2023-04-26T00:28:22.081Z,0.00
2023-04-26T00:29:21.917Z,0.00
2023-04-26T00:30:21.876Z,0.00
2023-04-26T00:31:21.894Z,0.00
2023-04-26T00:32:21.830Z,0.00
2023-04-26T00:33:21.764Z,0.00
2023-04-26T00:34:21.778Z,0.00
2023-04-26T00:35:21.693Z,0.00
2023-04-26T00:36:21.668Z,0.00
2023-04-26T00:37:21.630Z,0.00
2023-04-26T00:38:21.589Z,0.00
2023-04-26T00:39:21.602Z,0.00
2023-04-26T00:40:21.519Z,0.00
2023-04-26T00:41:21.467Z,0.00
2023-04-26T00:42:21.440Z,0.00
2023-04-26T00:43:21.403Z,0.00
2023-04-26T00:44:21.373Z,0.00
2023-04-26T00:45:21.380Z,0.00
2023-04-26T00:46:21.396Z,0.00
2023-04-26T00:47:21.257Z,0.00
2023-04-26T00:48:21.213Z,0.00
2023-04-26T00:49:21.205Z,0.00
2023-04-26T00:50:21.205Z,0.00
2023-04-26T00:51:21.105Z,0.00
2023-04-26T00:52:21.059Z,0.00
2023-04-26T00:53:21.032Z,0.00
2023-04-26T00:54:21.013Z,0.00
2023-04-26T00:55:20.978Z,0.00
2023-04-26T00:56:20.987Z,0.00
2023-04-26T00:57:20.873Z,0.00
2023-04-26T00:58:20.839Z,0.00
2023-04-26T00:59:20.839Z,0.00
2023-04-26T01:00:20.775Z,0.00
2023-04-26T01:01:20.827Z,0.00
2023-04-26T01:02:20.790Z,0.00
2023-04-26T01:03:20.796Z,0.00
2023-04-26T01:04:20.881Z,0.00
2023-04-26T01:05:20.580Z,0.00
2023-04-26T01:06:20.548Z,0.00
2023-04-26T01:07:20.583Z,0.00
2023-04-26T01:08:20.493Z,0.00
2023-04-26T01:09:20.439Z,0.00
2023-04-26T01:10:20.443Z,0.00
2023-04-26T01:11:20.357Z,0.00
2023-04-26T01:12:20.318Z,0.00
2023-04-26T01:13:20.347Z,0.00
2023-04-26T01:14:20.242Z,0.00
2023-04-26T01:15:20.217Z,0.00
2023-04-26T01:16:20.249Z,0.00
2023-04-26T01:17:20.183Z,0.00
2023-04-26T01:18:20.104Z,0.00
2023-04-26T01:19:20.543Z,0.00
2023-04-26T01:20:20.077Z,0.00
2023-04-26T01:21:19.983Z,0.00
2023-04-26T01:22:19.950Z,0.00
2023-04-26T01:23:19.990Z,0.00
2023-04-26T01:24:19.874Z,0.00
2023-04-26T01:25:19.845Z,0.00
2023-04-26T01:26:19.804Z,0.00
2023-04-26T01:27:19.790Z,0.00
2023-04-26T01:28:19.729Z,0.00
2023-04-26T01:29:19.749Z,0.00
2023-04-26T01:30:22.860Z,0.00
2023-04-26T01:31:19.638Z,0.00
2023-04-26T01:32:19.586Z,0.00
2023-04-26T01:33:19.535Z,0.00
2023-04-26T01:34:19.562Z,0.00
2023-04-26T01:35:19.477Z,0.00
2023-04-26T01:36:19.433Z,0.00
2023-04-26T01:37:19.404Z,0.00
2023-04-26T01:38:19.355Z,0.00
2023-04-26T01:39:19.406Z,0.00
2023-04-26T01:40:19.280Z,0.00
2023-04-26T01:41:19.234Z,0.00
2023-04-26T01:42:19.217Z,0.00
2023-04-26T01:43:19.194Z,0.00
2023-04-26T01:44:19.133Z,0.00
2023-04-26T01:45:19.177Z,0.00
2023-04-26T01:46:19.072Z,0.00
2023-04-26T01:47:19.041Z,0.00
2023-04-26T01:48:18.981Z,0.00
2023-04-26T01:49:18.938Z,0.00
2023-04-26T01:50:18.908Z,0.00
2023-04-26T01:51:18.928Z,0.00
2023-04-26T01:52:18.838Z,0.00
2023-04-26T01:53:18.789Z,0.00
2023-04-26T01:54:18.760Z,0.00
2023-04-26T01:55:18.721Z,0.00
2023-04-26T01:56:18.684Z,0.00
2023-04-26T01:57:18.710Z,0.00
2023-04-26T01:58:18.622Z,0.00
2023-04-26T01:59:18.571Z,0.00
2023-04-26T02:00:18.557Z,0.00
2023-04-26T02:01:18.549Z,0.00
2023-04-26T02:02:18.586Z,0.00
2023-04-26T02:03:18.489Z,0.00
2023-04-26T02:04:18.376Z,0.00
2023-04-26T02:05:18.439Z,0.00
2023-04-26T02:06:18.306Z,0.00
2023-04-26T02:07:18.265Z,0.00
2023-04-26T02:08:18.305Z,0.00
2023-04-26T02:09:18.230Z,0.00
2023-04-26T02:10:18.156Z,0.00
2023-04-26T02:11:18.183Z,0.00
2023-04-26T02:12:18.093Z,0.00
2023-04-26T02:13:18.068Z,0.00
2023-04-26T02:14:18.067Z,0.00
2023-04-26T02:15:17.977Z,0.00
2023-04-26T02:16:17.965Z,0.00
2023-04-26T02:17:17.903Z,0.00
2023-04-26T02:18:17.859Z,0.00
2023-04-26T02:19:17.873Z,0.00
2023-04-26T02:20:17.843Z,0.00
2023-04-26T02:21:17.747Z,0.00
2023-04-26T02:22:17.707Z,0.00
2023-04-26T02:23:17.680Z,0.00
2023-04-26T02:24:17.705Z,0.00
2023-04-26T02:25:17.606Z,0.00
2023-04-26T02:26:17.563Z,0.00
2023-04-26T02:27:17.650Z,0.00
2023-04-26T02:28:17.505Z,0.00
2023-04-26T02:29:17.453Z,0.00
2023-04-26T02:30:17.463Z,0.00
2023-04-26T02:31:17.434Z,0.00
2023-04-26T02:32:17.346Z,0.00
2023-04-26T02:33:17.301Z,0.00
2023-04-26T02:34:17.268Z,0.00
2023-04-26T02:35:17.283Z,0.00
2023-04-26T02:36:17.195Z,0.00
2023-04-26T02:37:17.157Z,0.00
2023-04-26T02:38:17.114Z,0.00
2023-04-26T02:39:17.092Z,0.00
2023-04-26T02:40:17.042Z,0.00
2023-04-26T02:41:17.072Z,0.00
2023-04-26T02:42:16.966Z,0.00
2023-04-26T02:43:16.933Z,0.00
2023-04-26T02:44:16.934Z,0.00
2023-04-26T02:45:16.869Z,0.00
2023-04-26T02:46:17.442Z,0.00
2023-04-26T02:47:16.851Z,0.00
2023-04-26T02:48:16.803Z,0.00
2023-04-26T02:49:16.710Z,0.00
2023-04-26T02:50:16.672Z,0.00
2023-04-26T02:51:16.693Z,0.00
2023-04-26T02:52:16.584Z,0.00
2023-04-26T02:53:16.602Z,0.00
2023-04-26T02:54:16.518Z,0.00
2023-04-26T02:55:16.485Z,0.00
2023-04-26T02:56:16.433Z,0.00
2023-04-26T02:57:16.458Z,0.00
2023-04-26T02:58:16.367Z,0.00
2023-04-26T02:59:16.393Z,0.00
2023-04-26T03:00:16.304Z,0.00
2023-04-26T03:01:16.348Z,0.00
2023-04-26T03:02:16.327Z,0.00
2023-04-26T03:03:16.293Z,0.00
2023-04-26T03:04:16.419Z,0.00
2023-04-26T03:05:16.108Z,0.00
2023-04-26T03:06:16.057Z,0.00
2023-04-26T03:07:16.023Z,0.00
2023-04-26T03:08:15.985Z,0.00
2023-04-26T03:09:15.999Z,0.00
2023-04-26T03:10:15.912Z,0.00
2023-04-26T03:11:16.492Z,0.00
2023-04-26T03:12:15.831Z,0.00
2023-04-26T03:13:15.806Z,0.00
2023-04-26T03:14:15.764Z,0.00
2023-04-26T03:15:15.812Z,0.00
2023-04-26T03:16:15.793Z,0.00
2023-04-26T03:17:15.646Z,0.00
2023-04-26T03:18:15.617Z,0.00
2023-04-26T03:19:15.569Z,0.00
2023-04-26T03:20:15.533Z,0.00
2023-04-26T03:21:15.586Z,0.00
2023-04-26T03:22:15.471Z,0.00
2023-04-26T03:23:15.423Z,0.00
2023-04-26T03:24:15.436Z,0.00
2023-04-26T03:25:15.351Z,0.00
2023-04-26T03:26:15.314Z,0.00
2023-04-26T03:27:15.340Z,0.00
2023-04-26T03:28:15.254Z,0.00
2023-04-26T03:29:15.218Z,0.00
2023-04-26T03:30:15.160Z,0.00
2023-04-26T03:31:15.120Z,0.00
2023-04-26T03:32:15.176Z,0.00
2023-04-26T03:33:15.150Z,0.00
2023-04-26T03:34:15.058Z,0.00
2023-04-26T03:35:14.985Z,5.63
2023-04-26T03:36:14.941Z,5.63
2023-04-26T03:37:14.904Z,5.63
2023-04-26T03:38:14.868Z,5.63
2023-04-26T03:39:14.903Z,5.63
2023-04-26T03:40:14.784Z,5.63
2023-04-26T03:41:14.744Z,11.25
2023-04-26T03:42:14.710Z,11.25
2023-04-26T03:43:14.693Z,11.25
2023-04-26T03:44:14.704Z,11.25
2023-04-26T03:45:14.659Z,11.25
2023-04-26T03:46:14.741Z,16.88
2023-04-26T03:47:14.562Z,16.88
2023-04-26T03:48:14.514Z,16.88
2023-04-26T03:49:14.458Z,22.50
2023-04-26T03:50:14.422Z,22.50
2023-04-26T03:51:14.424Z,22.50
2023-04-26T03:52:14.411Z,28.13
2023-04-26T03:53:14.300Z,28.13
2023-04-26T03:54:14.264Z,33.75
2023-04-26T03:55:14.224Z,33.75
2023-04-26T03:56:14.188Z,33.75
2023-04-26T03:57:14.223Z,39.38
2023-04-26T03:58:14.122Z,39.38
2023-04-26T03:59:14.071Z,45.00
2023-04-26T04:00:14.054Z,45.00
2023-04-26T04:01:13.995Z,50.63
2023-04-26T04:02:14.047Z,50.63
2023-04-26T04:03:14.161Z,56.25
2023-04-26T04:04:14.216Z,56.25
2023-04-26T04:05:14.062Z,61.88
2023-04-26T04:06:13.870Z,67.50
2023-04-26T04:07:13.780Z,67.50
2023-04-26T04:08:13.739Z,73.13
2023-04-26T04:09:13.704Z,78.75
2023-04-26T04:10:13.675Z,78.75
2023-04-26T04:11:13.697Z,95.63
2023-04-26T04:12:13.591Z,112.50
2023-04-26T04:13:13.547Z,129.38
2023-04-26T04:14:13.599Z,140.63
2023-04-26T04:15:13.467Z,151.88
2023-04-26T04:16:13.456Z,157.50
2023-04-26T04:17:13.453Z,168.75
2023-04-26T04:18:13.474Z,180.00
2023-04-26T04:19:13.374Z,185.63
2023-04-26T04:20:13.284Z,191.25
2023-04-26T04:21:13.288Z,174.38
2023-04-26T04:22:13.267Z,163.13
2023-04-26T04:23:13.177Z,174.38
2023-04-26T04:24:13.139Z,180.00
2023-04-26T04:25:13.106Z,180.00
2023-04-26T04:26:13.066Z,180.00
2023-04-26T04:27:13.025Z,180.00
2023-04-26T04:28:13.048Z,174.38
2023-04-26T04:29:13.004Z,174.38
2023-04-26T04:30:12.919Z,185.63
2023-04-26T04:31:13.086Z,196.88
2023-04-26T04:32:12.837Z,208.13
2023-04-26T04:33:12.805Z,219.38
2023-04-26T04:34:12.832Z,230.63
2023-04-26T04:35:12.724Z,236.25
2023-04-26T04:36:12.698Z,247.50
2023-04-26T04:37:12.658Z,258.75
2023-04-26T04:38:12.621Z,264.38
2023-04-26T04:39:12.657Z,270.00
2023-04-26T04:40:12.571Z,275.63
2023-04-26T04:41:12.531Z,258.75
2023-04-26T04:42:12.469Z,230.63
2023-04-26T04:43:12.512Z,230.63
2023-04-26T04:44:12.471Z,253.13
2023-04-26T04:45:12.375Z,286.88
2023-04-26T04:46:12.941Z,326.25
2023-04-26T04:47:12.320Z,331.88
2023-04-26T04:48:12.304Z,331.88
2023-04-26T04:49:12.229Z,348.75
2023-04-26T04:50:12.264Z,360.00
2023-04-26T04:51:12.165Z,354.38
2023-04-26T04:52:12.127Z,348.75
2023-04-26T04:53:12.101Z,343.13
2023-04-26T04:54:12.053Z,343.13
2023-04-26T04:55:12.019Z,331.88
2023-04-26T04:56:12.029Z,309.38
2023-04-26T04:57:11.941Z,253.13
2023-04-26T04:58:11.915Z,208.13
2023-04-26T04:59:11.881Z,202.50
2023-04-26T05:00:11.832Z,202.50
2023-04-26T05:01:11.864Z,208.13
2023-04-26T05:02:11.797Z,208.13
2023-04-26T05:03:11.943Z,208.13
2023-04-26T05:04:11.870Z,213.75
2023-04-26T05:05:11.751Z,213.75
2023-04-26T05:06:11.620Z,213.75
2023-04-26T05:07:11.643Z,219.38
2023-04-26T05:08:11.558Z,219.38
2023-04-26T05:09:11.507Z,225.00
2023-04-26T05:10:11.483Z,219.38
2023-04-26T05:11:11.445Z,219.38
2023-04-26T05:12:11.474Z,219.38
2023-04-26T05:13:11.368Z,219.38
2023-04-26T05:14:11.327Z,225.00
2023-04-26T05:15:11.302Z,225.00
2023-04-26T05:16:11.311Z,225.00
2023-04-26T05:17:11.226Z,225.00
2023-04-26T05:18:11.338Z,225.00
2023-04-26T05:19:11.160Z,225.00
2023-04-26T05:20:11.179Z,230.63
2023-04-26T05:21:11.116Z,236.25
2023-04-26T05:22:11.051Z,236.25
2023-04-26T05:23:11.064Z,236.25
2023-04-26T05:24:11.038Z,236.25
2023-04-26T05:25:10.959Z,236.25
2023-04-26T05:26:10.911Z,230.63
2023-04-26T05:27:10.872Z,236.25
2023-04-26T05:28:10.860Z,230.63
2023-04-26T05:29:10.848Z,230.63
2023-04-26T05:30:10.760Z,225.00
2023-04-26T05:31:11.532Z,225.00
2023-04-26T05:32:10.877Z,225.00
2023-04-26T05:33:10.689Z,230.63
2023-04-26T05:34:10.765Z,230.63
2023-04-26T05:35:10.594Z,230.63
2023-04-26T05:36:10.559Z,230.63
2023-04-26T05:37:10.500Z,230.63
2023-04-26T05:38:10.546Z,236.25
2023-04-26T05:39:10.443Z,236.25
2023-04-26T05:40:10.487Z,236.25
2023-04-26T05:41:10.362Z,241.88
2023-04-26T05:42:10.331Z,241.88
2023-04-26T05:43:10.292Z,247.50
2023-04-26T05:44:10.274Z,247.50
2023-04-26T05:45:10.228Z,247.50
2023-04-26T05:46:10.281Z,247.50
2023-04-26T05:47:10.182Z,247.50
2023-04-26T05:48:10.127Z,247.50
2023-04-26T05:49:10.072Z,253.13
2023-04-26T05:50:10.093Z,258.75
2023-04-26T05:51:10.091Z,253.13
2023-04-26T05:52:09.969Z,253.13
2023-04-26T05:53:09.932Z,253.13
2023-04-26T05:54:09.895Z,253.13
2023-04-26T05:55:09.866Z,258.75
2023-04-26T05:56:09.888Z,264.38
2023-04-26T05:57:09.826Z,264.38
2023-04-26T05:58:09.746Z,258.75
2023-04-26T05:59:09.710Z,253.13
2023-04-26T06:00:09.673Z,258.75
2023-04-26T06:01:09.640Z,258.75
2023-04-26T06:02:09.695Z,258.75
2023-04-26T06:03:09.774Z,258.75
2023-04-26T06:04:09.952Z,258.75
2023-04-26T06:05:09.639Z,258.75
2023-04-26T06:06:10.406Z,270.00
2023-04-26T06:07:11.077Z,264.38
2023-04-26T06:08:09.417Z,258.75
2023-04-26T06:09:09.354Z,258.75
2023-04-26T06:10:09.330Z,270.00
2023-04-26T06:11:09.281Z,258.75
2023-04-26T06:12:09.289Z,253.13
2023-04-26T06:13:09.204Z,264.38
2023-04-26T06:14:19.750Z,270.00
2023-04-26T06:15:09.134Z,270.00
2023-04-26T06:16:09.098Z,258.75
2023-04-26T06:17:09.094Z,258.75
2023-04-26T06:18:09.147Z,253.13
2023-04-26T06:19:08.988Z,264.38
2023-04-26T06:20:09.911Z,275.63
2023-04-26T06:21:08.911Z,270.00
2023-04-26T06:22:08.903Z,275.63
2023-04-26T06:23:08.852Z,270.00
2023-04-26T06:24:08.893Z,275.63
2023-04-26T06:25:08.780Z,275.63
2023-04-26T06:26:08.744Z,258.75
2023-04-26T06:27:09.509Z,264.38
2023-04-26T06:28:08.664Z,264.38
2023-04-26T06:29:08.631Z,264.38
2023-04-26T06:30:08.680Z,270.00
2023-04-26T06:31:08.607Z,270.00
2023-04-26T06:32:08.533Z,253.13
2023-04-26T06:33:08.551Z,253.13
2023-04-26T06:34:08.673Z,253.13
2023-04-26T06:35:08.458Z,253.13
2023-04-26T06:36:08.450Z,253.13
2023-04-26T06:37:08.343Z,253.13
2023-04-26T06:38:08.315Z,253.13
2023-04-26T06:39:08.272Z,253.13
2023-04-26T06:40:08.300Z,258.75
2023-04-26T06:41:08.213Z,264.38
2023-04-26T06:42:08.233Z,270.00
2023-04-26T06:43:08.138Z,281.25
2023-04-26T06:44:08.116Z,298.13
2023-04-26T06:45:08.076Z,309.38
2023-04-26T06:46:08.116Z,337.50
2023-04-26T06:47:08.028Z,388.13
2023-04-26T06:48:08.075Z,416.25
2023-04-26T06:49:07.929Z,421.88
2023-04-26T06:50:07.908Z,438.75
2023-04-26T06:51:07.909Z,444.38
2023-04-26T06:52:09.444Z,444.38
2023-04-26T06:53:07.796Z,444.38
2023-04-26T06:54:07.806Z,410.63
2023-04-26T06:55:07.714Z,405.00
2023-04-26T06:56:07.682Z,438.75
2023-04-26T06:57:07.673Z,489.38
2023-04-26T06:58:07.607Z,545.63
2023-04-26T06:59:07.624Z,568.13
2023-04-26T07:00:07.617Z,545.63
2023-04-26T07:01:07.520Z,506.25
2023-04-26T07:02:07.527Z,478.13
2023-04-26T07:03:07.571Z,483.75
2023-04-26T07:04:07.858Z,511.88
2023-04-26T07:05:07.631Z,416.25
2023-04-26T07:06:07.917Z,461.25
2023-04-26T07:07:07.399Z,421.88
2023-04-26T07:08:07.273Z,309.38
2023-04-26T07:09:07.245Z,326.25
2023-04-26T07:10:07.204Z,337.50
2023-04-26T07:11:07.215Z,348.75
2023-04-26T07:12:07.135Z,348.75
2023-04-26T07:13:09.392Z,365.63
2023-04-26T07:14:07.064Z,405.00
2023-04-26T07:15:07.019Z,450.00
2023-04-26T07:16:07.085Z,478.13
2023-04-26T07:17:06.953Z,489.38
2023-04-26T07:18:07.580Z,511.88
2023-04-26T07:19:06.898Z,551.25
2023-04-26T07:20:06.849Z,601.88
2023-04-26T07:21:06.895Z,630.00
2023-04-26T07:22:06.780Z,590.63
2023-04-26T07:23:06.847Z,579.38
2023-04-26T07:24:06.715Z,573.75
2023-04-26T07:25:06.750Z,562.50
2023-04-26T07:26:06.641Z,579.38
2023-04-26T07:27:06.804Z,624.38
2023-04-26T07:28:06.585Z,669.38
2023-04-26T07:29:06.545Z,703.13
2023-04-26T07:30:06.522Z,731.25
2023-04-26T07:31:08.794Z,714.38
2023-04-26T07:32:06.500Z,703.13
2023-04-26T07:33:06.590Z,697.50
2023-04-26T07:34:06.385Z,669.38
2023-04-26T07:35:06.352Z,641.25
2023-04-26T07:36:06.334Z,624.38
2023-04-26T07:37:06.365Z,618.75
2023-04-26T07:38:06.266Z,618.75
2023-04-26T07:39:06.368Z,613.13
2023-04-26T07:40:06.219Z,601.88
2023-04-26T07:41:06.157Z,624.38
2023-04-26T07:42:06.132Z,663.75
2023-04-26T07:43:06.090Z,652.50
2023-04-26T07:44:06.056Z,613.13
2023-04-26T07:45:06.084Z,601.88
2023-04-26T07:46:06.045Z,590.63
2023-04-26T07:47:05.967Z,540.00
2023-04-26T07:48:05.986Z,483.75
2023-04-26T07:49:05.880Z,517.50
2023-04-26T07:50:05.872Z,646.88
2023-04-26T07:51:05.883Z,691.88
2023-04-26T07:52:05.837Z,596.25
2023-04-26T07:53:05.762Z,556.88
2023-04-26T07:54:05.791Z,562.50
2023-04-26T07:55:05.692Z,607.50
2023-04-26T07:56:05.656Z,680.63
2023-04-26T07:57:05.632Z,720.00
2023-04-26T07:58:05.659Z,770.63
2023-04-26T07:59:05.572Z,787.50
2023-04-26T08:00:05.583Z,765.00
2023-04-26T08:01:05.503Z,725.63
2023-04-26T08:02:05.482Z,720.00
2023-04-26T08:03:05.554Z,748.13
2023-04-26T08:04:05.744Z,736.88
2023-04-26T08:05:05.693Z,748.13
2023-04-26T08:06:05.724Z,787.50
2023-04-26T08:07:05.308Z,793.13
2023-04-26T08:08:05.267Z,781.88
2023-04-26T08:09:05.262Z,725.63
2023-04-26T08:10:05.214Z,663.75
2023-04-26T08:11:05.286Z,613.13
2023-04-26T08:12:05.221Z,556.88
2023-04-26T08:13:05.107Z,506.25
2023-04-26T08:14:05.091Z,478.13
2023-04-26T08:15:05.091Z,489.38
2023-04-26T08:16:05.018Z,523.13
2023-04-26T08:17:05.044Z,556.88
2023-04-26T08:18:05.031Z,585.00
2023-04-26T08:19:04.916Z,607.50
2023-04-26T08:20:04.961Z,596.25
2023-04-26T08:21:04.863Z,562.50
2023-04-26T08:22:04.826Z,545.63
2023-04-26T08:23:05.547Z,540.00
2023-04-26T08:24:04.758Z,545.63
2023-04-26T08:25:04.725Z,601.88
2023-04-26T08:26:04.749Z,596.25
2023-04-26T08:27:04.665Z,596.25
2023-04-26T08:28:04.634Z,618.75
2023-04-26T08:29:04.599Z,641.25
2023-04-26T08:30:04.573Z,630.00
2023-04-26T08:31:04.656Z,624.38
2023-04-26T08:32:04.502Z,613.13
2023-04-26T08:33:04.556Z,607.50
2023-04-26T08:34:04.448Z,618.75
2023-04-26T08:35:04.440Z,641.25
2023-04-26T08:36:04.380Z,720.00
2023-04-26T08:37:04.413Z,725.63
2023-04-26T08:38:04.319Z,748.13
2023-04-26T08:39:04.270Z,781.88
2023-04-26T08:40:04.248Z,776.25
2023-04-26T08:41:04.205Z,736.88
2023-04-26T08:42:04.218Z,669.38
2023-04-26T08:43:04.281Z,601.88
2023-04-26T08:44:04.120Z,556.88
2023-04-26T08:45:04.124Z,523.13
2023-04-26T08:46:04.082Z,478.13
2023-04-26T08:47:04.039Z,427.50
2023-04-26T08:48:04.803Z,371.25
2023-04-26T08:49:04.011Z,348.75
2023-04-26T08:50:03.919Z,360.00
2023-04-26T08:51:03.884Z,399.38
2023-04-26T08:52:03.860Z,433.13
2023-04-26T08:53:03.818Z,450.00
2023-04-26T08:54:04.830Z,421.88
2023-04-26T08:55:03.819Z,388.13
2023-04-26T08:56:03.734Z,376.88
2023-04-26T08:57:03.703Z,371.25
2023-04-26T08:58:03.667Z,399.38
2023-04-26T08:59:03.793Z,489.38
2023-04-26T09:00:03.611Z,601.88
2023-04-26T09:01:03.630Z,641.25
2023-04-26T09:02:03.571Z,590.63
2023-04-26T09:03:03.722Z,540.00
2023-04-26T09:04:03.580Z,500.63
2023-04-26T09:05:03.606Z,461.25
2023-04-26T09:06:04.464Z,461.25
2023-04-26T09:07:03.457Z,534.38
2023-04-26T09:08:03.349Z,652.50
2023-04-26T09:09:03.320Z,725.63
2023-04-26T09:10:03.273Z,742.50
2023-04-26T09:11:03.264Z,725.63
2023-04-26T09:12:03.226Z,680.63
2023-04-26T09:13:03.226Z,641.25
2023-04-26T09:14:03.142Z,618.75
2023-04-26T09:15:03.161Z,601.88
2023-04-26T09:16:05.016Z,511.88
2023-04-26T09:17:03.044Z,450.00
2023-04-26T09:18:03.056Z,450.00
2023-04-26T09:19:03.056Z,421.88
2023-04-26T09:20:03.679Z,399.38
2023-04-26T09:21:02.927Z,421.88
2023-04-26T09:22:02.885Z,455.63
2023-04-26T09:23:02.898Z,438.75
2023-04-26T09:24:02.823Z,405.00
2023-04-26T09:25:02.828Z,360.00
2023-04-26T09:26:02.754Z,348.75
2023-04-26T09:27:02.728Z,337.50
2023-04-26T09:28:02.702Z,326.25
2023-04-26T09:29:02.706Z,343.13
2023-04-26T09:30:02.623Z,376.88
2023-04-26T09:31:02.697Z,388.13
2023-04-26T09:32:02.628Z,376.88
2023-04-26T09:33:02.591Z,421.88
2023-04-26T09:34:02.482Z,511.88
2023-04-26T09:35:02.450Z,568.13
2023-04-26T09:36:02.431Z,601.88
2023-04-26T09:37:02.450Z,573.75
2023-04-26T09:38:06.509Z,534.38
2023-04-26T09:39:02.337Z,489.38
2023-04-26T09:40:02.303Z,472.50
2023-04-26T09:41:02.262Z,461.25
2023-04-26T09:42:02.222Z,433.13
2023-04-26T09:43:02.273Z,388.13
2023-04-26T09:44:02.162Z,455.63
2023-04-26T09:45:02.146Z,489.38
2023-04-26T09:46:02.104Z,495.00
2023-04-26T09:47:02.274Z,523.13
2023-04-26T09:48:02.046Z,545.63
2023-04-26T09:49:02.070Z,556.88
2023-04-26T09:50:01.997Z,630.00
2023-04-26T09:51:01.929Z,765.00
2023-04-26T09:52:01.930Z,888.75
2023-04-26T09:53:01.870Z,900.00
2023-04-26T09:54:01.850Z,860.63
2023-04-26T09:55:01.881Z,776.25
2023-04-26T09:56:01.780Z,731.25
2023-04-26T09:57:01.777Z,787.50
2023-04-26T09:58:01.706Z,815.63
2023-04-26T09:59:01.676Z,753.75
2023-04-26T10:00:01.650Z,770.63
2023-04-26T10:01:01.706Z,821.25
2023-04-26T10:02:01.582Z,832.50
2023-04-26T10:03:01.679Z,804.38
2023-04-26T10:04:01.808Z,781.88
2023-04-26T10:05:01.577Z,770.63
2023-04-26T10:06:01.456Z,770.63
2023-04-26T10:07:01.478Z,753.75
2023-04-26T10:08:01.385Z,736.88
2023-04-26T10:09:01.374Z,725.63
2023-04-26T10:10:01.353Z,720.00
2023-04-26T10:11:01.305Z,703.13
2023-04-26T10:12:01.273Z,686.25
2023-04-26T10:13:01.286Z,675.00
2023-04-26T10:14:01.208Z,663.75
2023-04-26T10:15:01.296Z,607.50
2023-04-26T10:16:01.329Z,523.13
2023-04-26T10:17:01.136Z,472.50
2023-04-26T10:18:01.182Z,427.50
2023-04-26T10:19:01.094Z,421.88
2023-04-26T10:20:01.047Z,438.75
2023-04-26T10:21:01.046Z,461.25
2023-04-26T10:22:01.051Z,478.13
2023-04-26T10:23:00.928Z,483.75
2023-04-26T10:24:00.902Z,489.38
2023-04-26T10:25:00.863Z,528.75
2023-04-26T10:26:00.918Z,596.25
2023-04-26T10:27:00.837Z,652.50
2023-04-26T10:28:00.768Z,646.88
2023-04-26T10:29:02.539Z,596.25
2023-04-26T10:30:00.703Z,540.00
2023-04-26T10:31:00.755Z,461.25
2023-04-26T10:32:00.675Z,399.38
2023-04-26T10:33:00.669Z,371.25
2023-04-26T10:34:00.578Z,348.75
2023-04-26T10:35:00.570Z,348.75
2023-04-26T10:36:00.618Z,331.88
2023-04-26T10:37:00.485Z,298.13
2023-04-26T10:38:00.539Z,264.38
2023-04-26T10:39:00.431Z,253.13
2023-04-26T10:40:00.396Z,253.13
2023-04-26T10:41:00.360Z,270.00
2023-04-26T10:42:00.386Z,315.00
2023-04-26T10:43:00.293Z,354.38
2023-04-26T10:44:00.266Z,382.50
2023-04-26T10:45:00.304Z,416.25
2023-04-26T10:46:00.241Z,455.63
2023-04-26T10:47:00.242Z,472.50
2023-04-26T10:48:00.191Z,478.13
2023-04-26T10:49:00.138Z,489.38
2023-04-26T10:50:00.073Z,517.50
2023-04-26T10:51:00.036Z,556.88
2023-04-26T10:52:00.060Z,601.88
2023-04-26T10:53:01.013Z,646.88
2023-04-26T10:53:59.950Z,675.00
2023-04-26T10:54:59.963Z,691.88
2023-04-26T10:55:59.872Z,703.13
2023-04-26T10:56:59.854Z,691.88
2023-04-26T10:57:59.868Z,686.25
2023-04-26T10:58:59.788Z,691.88
2023-04-26T10:59:59.753Z,720.00
2023-04-26T11:00:59.732Z,753.75
2023-04-26T11:01:59.705Z,765.00
2023-04-26T11:03:02.549Z,770.63
2023-04-26T11:03:59.926Z,765.00
2023-04-26T11:04:59.643Z,720.00
2023-04-26T11:05:59.557Z,630.00
2023-04-26T11:06:59.638Z,540.00
2023-04-26T11:07:59.489Z,495.00
2023-04-26T11:08:59.463Z,489.38
2023-04-26T11:09:59.492Z,489.38
2023-04-26T11:10:59.405Z,466.88
2023-04-26T11:11:59.376Z,450.00
2023-04-26T11:12:59.338Z,478.13
2023-04-26T11:13:59.368Z,534.38
2023-04-26T11:14:59.273Z,596.25
2023-04-26T11:15:59.293Z,669.38
2023-04-26T11:16:59.222Z,714.38
2023-04-26T11:17:59.186Z,720.00
2023-04-26T11:18:59.208Z,703.13
2023-04-26T11:19:59.106Z,675.00
2023-04-26T11:20:59.084Z,624.38
2023-04-26T11:21:59.047Z,585.00
2023-04-26T11:22:59.080Z,551.25
2023-04-26T11:23:59.068Z,517.50
2023-04-26T11:24:58.959Z,478.13
2023-04-26T11:25:58.940Z,455.63
2023-04-26T11:26:58.906Z,455.63
2023-04-26T11:27:58.886Z,478.13
2023-04-26T11:28:58.842Z,528.75
2023-04-26T11:29:58.858Z,551.25
2023-04-26T11:30:58.776Z,585.00
2023-04-26T11:31:58.877Z,641.25
2023-04-26T11:32:58.773Z,675.00
2023-04-26T11:33:58.676Z,675.00
2023-04-26T11:34:58.646Z,658.13
2023-04-26T11:35:58.715Z,658.13
2023-04-26T11:36:58.595Z,675.00
2023-04-26T11:37:58.541Z,663.75
2023-04-26T11:38:58.516Z,658.13
2023-04-26T11:39:58.496Z,675.00
2023-04-26T11:40:58.644Z,708.75
2023-04-26T11:43:30.006Z,607.50
2023-04-26T11:44:29.944Z,551.25
2023-04-26T11:45:29.914Z,506.25
2023-04-26T11:46:29.928Z,489.38
2023-04-26T11:47:29.901Z,523.13
2023-04-26T11:48:29.841Z,568.13
2023-04-26T11:49:29.788Z,613.13
2023-04-26T11:50:29.778Z,680.63
2023-04-26T11:51:30.640Z,753.75
2023-04-26T11:52:29.706Z,793.13
2023-04-26T11:53:30.173Z,815.63
2023-04-26T11:54:29.628Z,826.88
2023-04-26T11:55:29.615Z,804.38
2023-04-26T11:56:29.571Z,736.88
2023-04-26T11:57:29.536Z,641.25
2023-04-26T11:58:29.510Z,534.38
2023-04-26T11:59:29.530Z,489.38
2023-04-26T12:00:29.466Z,489.38
2023-04-26T12:01:29.440Z,506.25
2023-04-26T12:02:29.453Z,506.25
2023-04-26T12:03:29.503Z,489.38
2023-04-26T12:04:30.145Z,483.75
2023-04-26T12:05:29.392Z,472.50
2023-04-26T12:06:29.262Z,478.13
2023-04-26T12:07:29.240Z,500.63
2023-04-26T12:08:29.206Z,534.38
2023-04-26T12:09:29.159Z,573.75
2023-04-26T12:10:29.138Z,607.50
2023-04-26T12:11:29.179Z,635.63
2023-04-26T12:12:29.071Z,680.63
2023-04-26T12:13:29.044Z,714.38
2023-04-26T12:14:29.057Z,736.88
2023-04-26T12:15:28.981Z,720.00
2023-04-26T12:16:29.040Z,691.88
2023-04-26T12:17:29.140Z,680.63
2023-04-26T12:18:28.885Z,675.00
2023-04-26T12:19:28.856Z,669.38
2023-04-26T12:20:28.824Z,686.25
2023-04-26T12:21:30.729Z,691.88
2023-04-26T12:22:28.796Z,669.38
2023-04-26T12:23:28.723Z,646.88
2023-04-26T12:24:28.689Z,669.38
2023-04-26T12:25:30.502Z,675.00
2023-04-26T12:26:28.634Z,697.50
2023-04-26T12:27:28.651Z,720.00
2023-04-26T12:28:28.581Z,731.25
2023-04-26T12:29:28.553Z,731.25
2023-04-26T12:30:28.523Z,731.25
2023-04-26T12:31:28.545Z,703.13
2023-04-26T12:32:28.466Z,663.75
2023-04-26T12:33:28.518Z,680.63
2023-04-26T12:34:28.388Z,691.88
2023-04-26T12:35:35.004Z,680.63
2023-04-26T12:36:28.336Z,658.13
2023-04-26T12:37:28.302Z,613.13
2023-04-26T12:38:28.284Z,534.38
2023-04-26T12:39:28.374Z,455.63
2023-04-26T12:40:28.202Z,405.00
2023-04-26T12:41:28.171Z,393.75
2023-04-26T12:42:28.157Z,438.75
2023-04-26T12:43:28.113Z,511.88
2023-04-26T12:44:28.082Z,517.50